Terminal Aerodrome Forecast
Issued by NWS

Home | Current Version | Previous Version | Text Only | Print | Product List | Glossary On
Versions: 1 2 3 4 5 6 7 8 9 10 11 12 13 14 15 16 17 18 19 20 21 22 23 24 25 26
000
FTAK31 PAFA 110205 AAA
TAFAMC
TAF AMD
PAMC 110205Z 1102/1124 09010G17KT P6SM BKN060 OVC080
     FM110500 VRB05KT P6SM BKN060 OVC080
     FM111300 12005KT P6SM -SHRA BKN040 OVC060
     FM111800 08006KT P6SM VCSH SCT030 BKN050=

USA.gov is the U.S. government's official web portal to all federal, state and local government web resources and services.